Villa Rica, Georgia
Current Conditions -  °F | °C
As of 6:55 PM on Saturday 22 Nov 2014 (Local Time) from KPUJ Reporting Station
Overcast Overcast  
Wind Chill: 55°   Ceiling: 2900
Heat Index: 55°   Visibility: 10mi
Dew Point: 36°   Wind: 7mph
Humidity: 47%   Direction: 120°ESE
Pressure: 30.24"   Gusts: NA
Location:  33.73°N, 84.92°W
Report Text: KPUJ 222355Z AUTO 12006KT 10SM OVC029 13/02 A3024 RMK AO2
Loading
Personal Weather Stations






























Interactive Weather Map New forecast layout! Learn more

10-Day Weather Forecast

Advertisements
Track Severe Weather on mobile